Time;durP1;ratioP1;P1;durP2;ratioP2;P2;SDS_P1;SDS_P2;PMS_P1;PMS_P2;Temp;Humidity;BMP_temperature;BMP_pressure;BME280_temperature;BME280_humidity;BME280_pressure;Samples;Min_cycle;Max_cycle;Signal;HPM_P1;HPM_P2
2023/04/28 00:02:17;;;;;;;6.45;4.03;;;14.30;77.60;;;;;;5045602;28;20393;-82
2023/04/28 00:04:44;;;;;;;6.73;4.20;;;14.20;77.70;;;;;;5046829;28;20463;-82
2023/04/28 00:07:10;;;;;;;8.80;4.60;;;14.10;77.80;;;;;;5053593;28;20067;-83
2023/04/28 00:09:35;;;;;;;6.57;4.03;;;14.00;77.90;;;;;;5031163;28;20028;-81
2023/04/28 00:12:02;;;;;;;6.43;4.07;;;14.00;78.10;;;;;;5056040;28;20533;-81
2023/04/28 00:14:27;;;;;;;6.60;4.00;;;13.90;78.40;;;;;;5041194;28;20110;-83
2023/04/28 00:16:55;;;;;;;6.87;3.87;;;13.80;78.60;;;;;;5048015;28;20056;-82
2023/04/28 00:19:21;;;;;;;7.35;4.22;;;13.80;79.00;;;;;;5051704;28;20566;-84
2023/04/28 00:21:47;;;;;;;7.37;4.60;;;13.70;79.20;;;;;;5041094;28;20024;-81
2023/04/28 00:24:12;;;;;;;7.72;4.45;;;13.70;79.40;;;;;;5021116;28;20048;-83
2023/04/28 00:26:38;;;;;;;9.47;4.43;;;13.60;79.50;;;;;;5073056;28;20020;-81
2023/04/28 00:29:03;;;;;;;8.65;5.05;;;13.60;79.50;;;;;;5041128;28;20174;-80
2023/04/28 00:31:29;;;;;;;7.53;4.50;;;13.60;79.60;;;;;;5035504;28;20044;-82
2023/04/28 00:33:55;;;;;;;7.93;4.05;;;13.50;80.40;;;;;;5057628;28;20036;-82
2023/04/28 00:36:21;;;;;;;6.73;4.23;;;13.50;79.90;;;;;;5049373;28;20024;-85
2023/04/28 00:38:47;;;;;;;7.43;4.32;;;13.50;80.10;;;;;;5019718;28;20058;-83
2023/04/28 00:41:14;;;;;;;6.88;4.00;;;13.50;80.30;;;;;;5056913;28;20036;-85
2023/04/28 00:43:47;;;;;;;6.53;4.10;;;13.50;80.30;;;;;;5056921;28;20242;-82
2023/04/28 00:46:28;;;;;;;7.35;4.18;;;13.50;80.50;;;;;;5059317;28;20146;-84
2023/04/28 00:48:54;;;;;;;7.97;5.00;;;13.50;80.80;;;;;;5035222;28;20132;-83
2023/04/28 00:51:20;;;;;;;7.57;4.63;;;13.50;80.80;;;;;;5035317;28;20059;-84
2023/04/28 00:53:47;;;;;;;7.50;4.53;;;13.50;80.90;;;;;;5039904;28;20052;-82
2023/04/28 00:56:12;;;;;;;9.15;4.60;;;13.50;81.10;;;;;;5035097;28;20029;-84
2023/04/28 00:58:39;;;;;;;8.13;4.95;;;13.50;81.40;;;;;;5054729;28;20252;-82
2023/04/28 01:01:06;;;;;;;7.13;4.57;;;13.50;81.40;;;;;;5048401;28;20031;-82
2023/04/28 01:03:40;;;;;;;8.82;4.68;;;13.50;81.30;;;;;;5028875;28;20083;-82
2023/04/28 01:06:07;;;;;;;7.07;4.00;;;13.50;81.30;;;;;;5053022;28;20032;-83
2023/04/28 01:08:35;;;;;;;6.93;4.28;;;13.50;81.30;;;;;;5052693;28;20207;-82
2023/04/28 01:11:01;;;;;;;6.43;4.28;;;13.50;81.60;;;;;;5035707;28;20024;-82
2023/04/28 01:13:27;;;;;;;7.03;4.28;;;13.50;81.70;;;;;;5037104;28;20386;-82
2023/04/28 01:15:55;;;;;;;6.03;4.03;;;13.60;81.90;;;;;;5057544;28;20029;-82
2023/04/28 01:18:21;;;;;;;7.75;4.50;;;13.60;81.80;;;;;;5025297;28;20282;-84
2023/04/28 01:20:47;;;;;;;6.35;4.13;;;13.60;81.80;;;;;;5050366;28;20118;-82
2023/04/28 01:23:14;;;;;;;7.40;4.18;;;13.60;81.80;;;;;;5055277;28;20043;-84
2023/04/28 01:25:41;;;;;;;6.80;4.13;;;13.50;81.80;;;;;;5038723;28;20791;-82
2023/04/28 01:28:09;;;;;;;7.10;4.40;;;13.60;81.90;;;;;;5058426;28;20539;-84
2023/04/28 01:30:35;;;;;;;8.18;4.63;;;13.60;82.00;;;;;;5054388;28;20040;-82
2023/04/28 01:33:02;;;;;;;7.68;4.10;;;13.60;82.10;;;;;;5028054;28;20028;-82
2023/04/28 01:35:27;;;;;;;7.78;4.45;;;13.60;82.20;;;;;;5029363;28;20097;-83
2023/04/28 01:37:53;;;;;;;7.57;4.13;;;13.50;82.20;;;;;;5047675;28;20024;-82
2023/04/28 01:40:19;;;;;;;7.27;4.10;;;13.60;82.40;;;;;;5036145;28;20028;-84
2023/04/28 01:42:44;;;;;;;7.85;4.88;;;13.60;82.40;;;;;;5053769;28;20280;-82
2023/04/28 01:45:11;;;;;;;6.88;4.45;;;13.60;82.40;;;;;;5041191;28;20036;-84
2023/04/28 01:47:37;;;;;;;6.20;4.07;;;13.60;82.50;;;;;;5042776;28;20029;-82
2023/04/28 01:50:03;;;;;;;6.60;4.03;;;13.50;82.50;;;;;;5051256;28;20078;-81
2023/04/28 01:52:29;;;;;;;7.03;3.95;;;13.50;82.50;;;;;;5029201;28;20154;-81
2023/04/28 01:54:54;;;;;;;6.63;4.03;;;13.50;82.40;;;;;;5058249;28;20029;-82
2023/04/28 01:57:20;;;;;;;7.00;4.10;;;13.50;82.40;;;;;;5035094;28;20438;-83
2023/04/28 01:59:46;;;;;;;6.70;4.23;;;13.40;82.40;;;;;;5052344;28;20054;-81
2023/04/28 02:02:11;;;;;;;7.10;4.10;;;13.40;82.60;;;;;;5056689;28;20290;-83
2023/04/28 02:04:38;;;;;;;6.15;3.83;;;13.30;82.60;;;;;;5036994;28;20754;-82
2023/04/28 02:07:05;;;;;;;6.78;4.25;;;13.20;82.70;;;;;;5041404;28;20104;-82
2023/04/28 02:09:31;;;;;;;8.33;4.37;;;13.10;82.80;;;;;;5029741;28;20028;-81
2023/04/28 02:11:58;;;;;;;8.05;4.57;;;13.10;82.90;;;;;;5037775;28;20082;-83
2023/04/28 02:14:25;;;;;;;6.40;3.95;;;13.00;83.00;;;;;;5056514;28;20115;-84
2023/04/28 02:16:51;;;;;;;7.35;4.75;;;12.90;83.30;;;;;;5037347;28;20039;-83
2023/04/28 02:19:17;;;;;;;7.53;4.37;;;12.80;83.30;;;;;;5023765;28;20025;-85
2023/04/28 02:21:42;;;;;;;8.07;4.50;;;12.70;83.70;;;;;;5047799;28;20528;-83
2023/04/28 02:24:08;;;;;;;7.43;3.93;;;12.60;83.80;;;;;;5053515;28;20460;-85
2023/04/28 02:26:34;;;;;;;6.40;3.58;;;12.50;84.20;;;;;;5030325;28;20062;-82
2023/04/28 02:29:02;;;;;;;5.80;3.33;;;12.50;84.70;;;;;;5018587;28;20039;-82
2023/04/28 02:31:29;;;;;;;6.05;3.80;;;12.40;85.10;;;;;;5033278;28;20253;-84
2023/04/28 02:33:55;;;;;;;6.43;4.05;;;12.40;85.40;;;;;;5035415;28;20029;-83
2023/04/28 02:36:20;;;;;;;8.00;4.33;;;12.40;85.80;;;;;;5023441;28;20013;-85
2023/04/28 02:38:46;;;;;;;6.03;3.83;;;12.50;86.10;;;;;;5035486;28;20279;-82
2023/04/28 02:41:13;;;;;;;6.80;3.97;;;12.50;86.10;;;;;;5030980;28;20039;-85
2023/04/28 02:43:39;;;;;;;6.95;4.00;;;12.40;86.30;;;;;;5035298;28;20113;-82
2023/04/28 02:46:05;;;;;;;7.28;3.97;;;12.50;86.50;;;;;;5055771;28;20028;-83
2023/04/28 02:48:34;;;;;;;6.43;4.00;;;12.50;86.70;;;;;;5044604;28;20039;-84
2023/04/28 02:51:00;;;;;;;7.15;3.92;;;12.50;86.80;;;;;;5046478;28;20024;-83
2023/04/28 02:53:26;;;;;;;6.38;3.90;;;12.50;87.00;;;;;;5027425;28;20035;-82
2023/04/28 02:55:52;;;;;;;5.88;3.72;;;12.50;87.20;;;;;;5039540;28;20028;-84
2023/04/28 02:58:18;;;;;;;6.10;3.63;;;12.60;87.20;;;;;;5045684;28;20028;-85
2023/04/28 03:00:45;;;;;;;6.50;4.18;;;12.60;87.20;;;;;;5040502;28;20085;-82
2023/04/28 03:03:10;;;;;;;6.15;3.63;;;12.60;87.50;;;;;;5036023;28;20378;-84
2023/04/28 03:05:36;;;;;;;6.53;3.83;;;12.60;87.60;;;;;;5054199;28;20064;-82
2023/04/28 03:08:02;;;;;;;5.70;3.93;;;12.60;87.60;;;;;;5043165;28;20473;-84
2023/04/28 03:10:28;;;;;;;6.85;4.15;;;12.60;87.70;;;;;;5009453;28;20647;-82
2023/04/28 03:12:53;;;;;;;6.40;4.17;;;12.60;87.70;;;;;;5047885;28;20443;-84
2023/04/28 03:15:19;;;;;;;5.72;3.92;;;12.70;87.90;;;;;;5012583;28;20028;-85
2023/04/28 03:17:45;;;;;;;6.25;4.00;;;12.60;88.10;;;;;;5054490;28;20020;-83
2023/04/28 03:20:12;;;;;;;5.80;3.77;;;12.70;88.20;;;;;;5053466;28;20035;-85
2023/04/28 03:22:38;;;;;;;6.78;4.10;;;12.60;88.30;;;;;;5025341;28;20586;-82
2023/04/28 03:25:04;;;;;;;7.60;4.57;;;12.60;88.20;;;;;;5032952;28;20024;-84
2023/04/28 03:27:30;;;;;;;6.75;4.30;;;12.70;88.40;;;;;;5053188;28;20655;-81
2023/04/28 03:29:56;;;;;;;6.20;3.73;;;12.60;88.50;;;;;;5048475;28;20055;-82
2023/04/28 03:32:22;;;;;;;6.53;4.15;;;12.70;88.70;;;;;;5015431;28;20337;-83
2023/04/28 03:34:47;;;;;;;7.18;4.35;;;12.70;88.80;;;;;;5056965;28;20025;-83
2023/04/28 03:37:13;;;;;;;6.70;4.33;;;12.70;88.90;;;;;;5029750;28;20021;-84
2023/04/28 03:39:39;;;;;;;7.30;4.33;;;12.70;89.00;;;;;;5044970;28;20032;-82
2023/04/28 03:42:05;;;;;;;6.82;4.03;;;12.70;89.00;;;;;;5049009;28;20119;-84
2023/04/28 03:44:30;;;;;;;6.75;4.60;;;12.70;89.20;;;;;;5026414;28;20600;-82
2023/04/28 03:46:56;;;;;;;7.10;4.27;;;12.70;89.40;;;;;;5017566;28;21166;-82
2023/04/28 03:49:22;;;;;;;6.63;3.97;;;12.70;89.40;;;;;;5032770;28;20048;-83
2023/04/28 03:51:50;;;;;;;6.65;4.15;;;12.80;90.00;;;;;;5055558;28;20021;-82
2023/04/28 03:54:15;;;;;;;7.20;4.30;;;12.80;89.60;;;;;;5028734;28;20058;-84
2023/04/28 03:56:41;;;;;;;7.03;3.95;;;12.80;89.70;;;;;;5035950;28;20020;-83
2023/04/28 03:59:10;;;;;;;6.43;4.22;;;12.80;89.80;;;;;;5057211;28;20100;-85
2023/04/28 04:01:36;;;;;;;5.73;3.80;;;12.80;89.90;;;;;;5045158;28;20161;-82
2023/04/28 04:04:02;;;;;;;6.97;4.03;;;12.80;89.90;;;;;;5038930;28;20024;-84
2023/04/28 04:06:28;;;;;;;6.97;4.32;;;12.80;90.00;;;;;;5036250;28;20036;-83
2023/04/28 04:08:54;;;;;;;7.57;4.20;;;12.80;90.00;;;;;;5062408;28;20638;-83
2023/04/28 04:11:20;;;;;;;7.28;4.28;;;12.90;90.10;;;;;;5022889;28;20020;-84
2023/04/28 04:13:46;;;;;;;8.38;4.30;;;12.90;90.10;;;;;;5057548;28;20430;-82
2023/04/28 04:16:14;;;;;;;7.80;4.10;;;12.80;90.10;;;;;;5052654;28;20496;-84
2023/04/28 04:18:40;;;;;;;8.05;3.95;;;12.90;90.20;;;;;;5033940;28;20023;-82
2023/04/28 04:21:06;;;;;;;7.20;4.20;;;12.90;90.30;;;;;;5059862;28;20377;-84
2023/04/28 04:23:32;;;;;;;6.05;3.70;;;12.90;90.30;;;;;;5052498;28;20634;-83
2023/04/28 04:25:57;;;;;;;7.13;4.00;;;12.90;90.40;;;;;;5048273;28;20068;-82
2023/04/28 04:28:23;;;;;;;6.83;4.27;;;12.90;90.40;;;;;;5032486;28;20025;-82
2023/04/28 04:30:49;;;;;;;7.40;4.22;;;12.90;90.50;;;;;;5059777;28;20110;-82
2023/04/28 04:33:15;;;;;;;7.22;4.35;;;12.90;90.60;;;;;;5011374;28;20024;-84
2023/04/28 04:35:41;;;;;;;8.07;4.33;;;12.90;90.60;;;;;;5058541;28;20241;-82
2023/04/28 04:38:07;;;;;;;6.32;3.95;;;12.90;90.60;;;;;;5038976;28;20015;-86
2023/04/28 04:40:32;;;;;;;6.90;4.18;;;12.90;90.60;;;;;;5046292;28;20044;-82
2023/04/28 04:42:59;;;;;;;7.10;4.38;;;12.90;90.60;;;;;;5053175;28;20032;-82
2023/04/28 04:45:25;;;;;;;7.53;4.27;;;12.90;90.70;;;;;;5036657;28;20181;-82
2023/04/28 04:47:52;;;;;;;6.70;3.88;;;12.90;90.80;;;;;;5053294;28;20029;-83
2023/04/28 04:50:17;;;;;;;6.60;4.07;;;12.90;90.80;;;;;;5036780;28;20032;-85
2023/04/28 04:52:43;;;;;;;6.07;3.77;;;12.90;90.90;;;;;;5059000;28;20051;-81
2023/04/28 04:55:12;;;;;;;6.82;3.90;;;12.80;90.90;;;;;;5039721;28;20119;-85
2023/04/28 04:57:38;;;;;;;6.93;4.35;;;12.80;91.00;;;;;;5029610;28;20094;-85
2023/04/28 05:00:04;;;;;;;6.90;4.13;;;12.80;91.10;;;;;;5052056;28;20036;-85
2023/04/28 05:02:30;;;;;;;8.07;4.32;;;12.80;91.30;;;;;;5019830;28;20027;-85
2023/04/28 05:04:56;;;;;;;6.85;4.05;;;12.80;91.30;;;;;;5009426;28;20488;-82
2023/04/28 05:07:22;;;;;;;6.20;3.90;;;12.80;91.30;;;;;;5042984;28;20047;-82
2023/04/28 05:09:48;;;;;;;6.60;3.67;;;12.80;91.30;;;;;;5038643;28;20398;-82
2023/04/28 05:12:13;;;;;;;7.97;4.18;;;12.80;91.50;;;;;;5030304;28;20448;-83
2023/04/28 05:14:39;;;;;;;6.70;4.13;;;12.90;91.60;;;;;;5049238;28;20626;-85
2023/04/28 05:17:05;;;;;;;6.07;3.77;;;12.90;91.60;;;;;;5057009;28;20658;-83
2023/04/28 05:19:31;;;;;;;8.38;3.95;;;12.90;91.70;;;;;;5030538;28;20024;-85
2023/04/28 05:21:56;;;;;;;6.10;3.80;;;12.90;91.70;;;;;;5037128;28;22054;-82
2023/04/28 05:24:22;;;;;;;6.70;4.10;;;12.90;91.80;;;;;;5044241;28;20024;-83
2023/04/28 05:26:50;;;;;;;7.72;4.07;;;12.90;91.80;;;;;;5035827;28;20417;-81
2023/04/28 05:29:16;;;;;;;6.70;3.97;;;12.90;91.90;;;;;;5031278;28;20439;-81
2023/04/28 05:31:42;;;;;;;7.83;4.33;;;12.90;92.00;;;;;;5029168;28;20033;-84
2023/04/28 05:34:08;;;;;;;6.80;4.05;;;12.90;92.10;;;;;;5053214;28;20028;-82
2023/04/28 05:36:34;;;;;;;6.28;4.35;;;12.90;92.30;;;;;;5021695;28;20035;-84
2023/04/28 05:39:00;;;;;;;6.90;3.87;;;12.90;92.40;;;;;;5024593;28;20190;-82
2023/04/28 05:41:25;;;;;;;9.13;4.22;;;13.00;92.60;;;;;;5056916;28;20029;-81
2023/04/28 05:43:51;;;;;;;6.80;4.32;;;13.00;92.70;;;;;;5025400;28;20036;-82
2023/04/28 05:46:17;;;;;;;6.17;4.13;;;13.00;92.90;;;;;;5049195;28;20114;-83
2023/04/28 05:48:43;;;;;;;6.90;4.30;;;13.00;93.00;;;;;;5040279;28;20086;-84
2023/04/28 05:51:09;;;;;;;7.53;3.85;;;13.00;93.10;;;;;;5034534;28;20037;-82
2023/04/28 05:53:35;;;;;;;7.43;4.37;;;13.10;93.30;;;;;;5052627;28;20024;-85
2023/04/28 05:56:00;;;;;;;7.00;4.65;;;13.10;93.40;;;;;;5030018;28;20309;-82
2023/04/28 05:58:26;;;;;;;8.07;4.40;;;13.20;93.60;;;;;;5058967;28;20350;-85
2023/04/28 06:00:53;;;;;;;6.87;4.30;;;13.20;94.10;;;;;;5037504;28;20588;-82
2023/04/28 06:03:19;;;;;;;6.63;4.28;;;13.20;93.90;;;;;;5039132;28;20020;-82
2023/04/28 06:05:45;;;;;;;8.00;4.75;;;13.30;94.00;;;;;;5037579;28;20054;-85
2023/04/28 06:08:11;;;;;;;7.53;4.90;;;13.30;94.10;;;;;;5046651;28;20035;-81
2023/04/28 06:10:37;;;;;;;6.70;4.07;;;13.40;94.20;;;;;;5019539;28;20028;-82
2023/04/28 06:13:05;;;;;;;7.65;4.82;;;13.40;94.20;;;;;;5044535;28;20392;-82
2023/04/28 06:15:31;;;;;;;7.00;4.13;;;13.40;94.40;;;;;;5015004;28;20017;-83
2023/04/28 06:18:01;;;;;;;7.90;4.75;;;13.50;94.40;;;;;;5037621;28;20029;-82
2023/04/28 06:20:26;;;;;;;7.30;4.35;;;13.50;94.40;;;;;;5055252;28;20025;-83
2023/04/28 06:22:52;;;;;;;7.27;4.73;;;13.50;94.50;;;;;;5014772;28;20528;-82
2023/04/28 06:25:18;;;;;;;9.57;5.05;;;13.50;94.60;;;;;;5038672;28;20106;-84
2023/04/28 06:27:44;;;;;;;8.67;4.90;;;13.50;94.70;;;;;;5037883;28;20050;-83
2023/04/28 06:30:15;;;;;;;7.68;4.75;;;13.60;94.90;;;;;;5056609;28;20139;-82
2023/04/28 06:32:41;;;;;;;7.20;4.68;;;13.60;94.90;;;;;;5032750;28;20143;-82
2023/04/28 06:35:07;;;;;;;7.60;4.83;;;13.60;95.10;;;;;;5054351;28;20024;-82
2023/04/28 06:37:33;;;;;;;8.40;4.95;;;13.60;95.30;;;;;;5032755;28;20024;-84
2023/04/28 06:39:59;;;;;;;8.57;5.30;;;13.60;95.60;;;;;;5055754;28;20093;-81
2023/04/28 06:42:25;;;;;;;8.25;5.15;;;13.70;95.70;;;;;;5030564;28;20124;-84
2023/04/28 06:44:50;;;;;;;8.35;5.03;;;13.70;95.90;;;;;;5054999;28;20036;-82
2023/04/28 06:47:16;;;;;;;8.50;5.27;;;13.70;95.90;;;;;;5020203;28;20036;-85
2023/04/28 06:49:43;;;;;;;9.25;5.63;;;13.80;95.90;;;;;;5048393;28;20055;-82
2023/04/28 06:52:09;;;;;;;7.20;4.60;;;13.80;96.00;;;;;;5052120;28;20035;-85
2023/04/28 06:54:37;;;;;;;8.57;5.13;;;13.80;96.10;;;;;;5017015;28;20029;-83
2023/04/28 06:57:02;;;;;;;8.63;5.13;;;13.80;96.30;;;;;;5027697;28;20017;-83
2023/04/28 06:59:28;;;;;;;9.20;5.70;;;13.80;96.50;;;;;;5034357;28;20676;-82
2023/04/28 07:01:54;;;;;;;8.20;5.10;;;13.90;96.80;;;;;;5027908;28;20111;-83
2023/04/28 07:04:20;;;;;;;8.33;5.10;;;14.00;97.10;;;;;;5045537;28;20032;-85
2023/04/28 07:06:45;;;;;;;8.95;5.40;;;14.00;97.30;;;;;;5049011;28;20058;-83
2023/04/28 07:09:11;;;;;;;8.37;5.30;;;14.10;97.50;;;;;;5020600;28;20154;-84
2023/04/28 07:11:37;;;;;;;8.77;5.65;;;14.20;97.70;;;;;;5036031;28;20105;-83
2023/04/28 07:14:03;;;;;;;8.25;5.53;;;14.20;97.90;;;;;;5039705;28;20588;-85
2023/04/28 07:16:29;;;;;;;9.23;5.50;;;14.30;98.10;;;;;;5038059;28;20417;-82
2023/04/28 07:18:55;;;;;;;9.43;5.90;;;14.40;98.30;;;;;;5020642;28;20428;-83
2023/04/28 07:21:21;;;;;;;9.23;5.35;;;14.50;98.40;;;;;;5052385;28;20715;-83
2023/04/28 07:23:47;;;;;;;8.93;5.63;;;14.50;98.50;;;;;;5036381;28;20482;-83
2023/04/28 07:26:15;;;;;;;8.37;5.47;;;14.60;98.50;;;;;;5054170;28;20738;-86
2023/04/28 07:28:42;;;;;;;9.27;5.75;;;14.70;98.70;;;;;;5041892;28;20394;-82
2023/04/28 07:31:08;;;;;;;8.80;5.72;;;14.80;98.80;;;;;;5053342;28;20436;-84
2023/04/28 07:33:34;;;;;;;8.82;5.47;;;14.80;99.00;;;;;;5024573;28;20169;-83
2023/04/28 07:35:59;;;;;;;8.13;4.93;;;14.90;99.10;;;;;;5032410;28;20025;-83
2023/04/28 07:38:25;;;;;;;7.95;5.22;;;15.00;99.20;;;;;;5051143;28;20318;-82
2023/04/28 07:40:51;;;;;;;8.03;4.80;;;15.10;99.30;;;;;;5021246;28;20032;-84
2023/04/28 07:43:17;;;;;;;8.00;4.95;;;15.10;99.40;;;;;;5044934;28;20024;-85
2023/04/28 07:45:44;;;;;;;7.93;5.00;;;15.20;99.50;;;;;;5052891;28;20070;-82
2023/04/28 07:48:10;;;;;;;8.88;5.05;;;15.20;99.60;;;;;;5045884;28;20282;-84
2023/04/28 07:50:36;;;;;;;7.53;5.13;;;15.30;99.80;;;;;;5033170;28;20056;-83
2023/04/28 07:53:02;;;;;;;7.53;4.82;;;15.40;99.90;;;;;;5055731;28;20025;-84
2023/04/28 07:55:28;;;;;;;7.33;4.90;;;15.40;99.90;;;;;;5045445;28;20043;-83
2023/04/28 07:57:55;;;;;;;5.85;4.10;;;15.50;99.90;;;;;;5054477;28;20055;-86
2023/04/28 08:00:21;;;;;;;6.28;3.90;;;15.60;99.90;;;;;;5039633;28;20020;-86
2023/04/28 08:02:47;;;;;;;5.47;3.47;;;15.80;99.90;;;;;;5058423;28;20037;-84
2023/04/28 08:05:12;;;;;;;4.43;3.13;;;15.90;99.90;;;;;;5044187;28;20025;-86
2023/04/28 08:07:38;;;;;;;4.20;2.80;;;16.10;99.90;;;;;;5045909;28;20516;-87
2023/04/28 08:10:04;;;;;;;3.75;2.42;;;16.30;99.90;;;;;;5036943;28;20100;-85
2023/04/28 08:12:31;;;;;;;2.63;2.03;;;16.40;99.90;;;;;;5038409;28;20036;-85
2023/04/28 08:14:57;;;;;;;2.47;2.00;;;16.50;99.90;;;;;;5040488;28;21145;-85
2023/04/28 08:17:22;;;;;;;2.20;1.80;;;16.60;99.90;;;;;;5057059;28;20045;-83
2023/04/28 08:19:49;;;;;;;1.87;1.47;;;16.70;99.90;;;;;;5039886;28;20216;-83
2023/04/28 08:22:15;;;;;;;2.55;1.67;;;16.70;99.90;;;;;;5048240;28;20449;-87
2023/04/28 08:24:41;;;;;;;2.05;1.55;;;16.70;99.90;;;;;;5034324;28;20024;-86
2023/04/28 08:27:07;;;;;;;1.90;1.40;;;16.70;99.90;;;;;;5034315;28;20033;-86
2023/04/28 08:29:33;;;;;;;1.90;1.43;;;16.80;99.90;;;;;;5048325;28;20030;-86
2023/04/28 08:32:00;;;;;;;1.80;1.50;;;16.80;99.90;;;;;;5046499;28;20598;-85
2023/04/28 08:34:26;;;;;;;1.60;1.30;;;16.80;99.90;;;;;;5039933;28;20028;-85
2023/04/28 08:36:52;;;;;;;1.75;1.50;;;16.80;99.90;;;;;;5044284;28;20152;-85
2023/04/28 08:39:19;;;;;;;1.60;1.30;;;16.90;99.90;;;;;;5053718;28;20011;-84
2023/04/28 08:41:45;;;;;;;1.50;1.40;;;16.90;99.90;;;;;;5002443;28;20040;-84
2023/04/28 08:44:11;;;;;;;1.65;1.27;;;16.90;99.90;;;;;;5059023;28;20020;-84
2023/04/28 08:46:42;;;;;;;1.60;1.40;;;17.00;99.90;;;;;;5022504;28;20029;-86
2023/04/28 08:49:16;;;;;;;2.13;1.53;;;17.00;99.90;;;;;;5059358;28;20037;-85
2023/04/28 08:51:49;;;;;;;1.90;1.50;;;17.00;99.90;;;;;;5022515;28;20032;-85
2023/04/28 08:54:16;;;;;;;2.00;1.60;;;17.10;99.90;;;;;;5046831;28;20044;-85
2023/04/28 08:56:45;;;;;;;1.80;1.40;;;17.10;99.90;;;;;;5034399;28;20648;-85
2023/04/28 08:59:15;;;;;;;1.58;1.40;;;17.10;99.90;;;;;;5040564;28;20028;-85
2023/04/28 09:01:41;;;;;;;2.20;1.40;;;17.20;99.90;;;;;;5025338;28;20029;-85
2023/04/28 09:04:07;;;;;;;1.80;1.40;;;17.20;99.90;;;;;;5043255;28;20024;-82
2023/04/28 09:06:37;;;;;;;1.45;1.05;;;17.30;99.90;;;;;;5044662;28;20028;-84
2023/04/28 09:09:21;;;;;;;1.65;1.40;;;17.40;99.90;;;;;;5049364;28;20348;-85
2023/04/28 09:12:01;;;;;;;1.63;1.50;;;17.50;99.90;;;;;;5050075;28;20093;-84
2023/04/28 09:14:30;;;;;;;1.30;1.17;;;17.60;99.90;;;;;;5019712;28;20027;-86
2023/04/28 09:16:56;;;;;;;1.23;1.02;;;17.70;99.90;;;;;;5025004;28;20695;-83
2023/04/28 09:19:22;;;;;;;1.20;1.10;;;17.90;99.90;;;;;;5058345;28;20025;-85
2023/04/28 09:21:53;;;;;;;1.23;1.00;;;17.90;99.90;;;;;;5041797;28;20267;-84
2023/04/28 09:24:30;;;;;;;1.60;0.90;;;18.00;99.90;;;;;;5050694;28;20032;-83
2023/04/28 09:26:57;;;;;;;1.20;1.00;;;18.00;99.90;;;;;;5055260;28;20052;-82
2023/04/28 09:29:22;;;;;;;1.20;1.10;;;18.00;99.90;;;;;;5055218;28;20063;-85
2023/04/28 09:31:49;;;;;;;1.17;0.93;;;18.10;99.90;;;;;;5032601;28;20193;-84
2023/04/28 09:34:15;;;;;;;1.60;1.00;;;18.20;99.90;;;;;;5045698;28;20024;-83
2023/04/28 09:36:40;;;;;;;1.83;0.80;;;18.30;99.90;;;;;;5039066;28;20029;-86
2023/04/28 09:39:06;;;;;;;1.48;0.80;;;18.30;99.90;;;;;;5057781;28;20056;-83
2023/04/28 09:41:37;;;;;;;1.20;0.90;;;18.40;99.90;;;;;;5030250;28;20123;-87
2023/04/28 09:44:10;;;;;;;1.10;0.90;;;18.50;99.90;;;;;;5066732;28;20372;-83
2023/04/28 09:46:36;;;;;;;0.80;0.80;;;18.60;99.90;;;;;;5036202;28;20033;-86
2023/04/28 09:49:01;;;;;;;0.80;0.80;;;18.70;99.90;;;;;;5045424;28;20036;-83
2023/04/28 09:51:27;;;;;;;0.97;0.80;;;18.70;99.90;;;;;;5037745;28;20020;-85
2023/04/28 09:53:58;;;;;;;1.48;0.77;;;18.80;99.90;;;;;;5044745;28;20060;-81
2023/04/28 09:56:29;;;;;;;0.70;0.70;;;18.80;99.90;;;;;;5033105;28;20405;-85
2023/04/28 09:59:00;;;;;;;0.70;0.70;;;18.80;99.90;;;;;;5058647;28;20575;-83
2023/04/28 10:01:37;;;;;;;0.90;0.73;;;18.80;99.90;;;;;;5026417;28;20324;-82
2023/04/28 10:04:03;;;;;;;0.75;0.60;;;19.00;99.90;;;;;;5026680;28;20448;-84
2023/04/28 10:06:29;;;;;;;0.60;0.60;;;19.10;99.90;;;;;;5048713;28;20047;-85
2023/04/28 10:08:57;;;;;;;0.63;0.60;;;19.30;99.90;;;;;;5025926;28;20500;-85
2023/04/28 10:11:24;;;;;;;0.73;0.65;;;19.50;99.90;;;;;;5040377;28;20826;-84
2023/04/28 10:13:52;;;;;;;0.53;0.53;;;19.60;99.90;;;;;;5054491;28;20535;-85
2023/04/28 10:16:19;;;;;;;0.60;0.60;;;19.60;99.90;;;;;;5031908;28;20603;-81
2023/04/28 10:18:45;;;;;;;0.60;0.60;;;19.70;99.90;;;;;;5066282;28;20712;-82
2023/04/28 10:21:15;;;;;;;0.60;0.60;;;19.80;99.90;;;;;;5038873;28;20024;-83
2023/04/28 10:23:45;;;;;;;0.50;0.50;;;19.80;99.90;;;;;;5041627;28;20417;-81
2023/04/28 10:26:13;;;;;;;0.50;0.50;;;19.80;99.70;;;;;;5027627;28;20270;-84
2023/04/28 10:28:57;;;;;;;0.60;0.60;;;19.80;99.50;;;;;;5042571;28;20527;-82
2023/04/28 10:31:23;;;;;;;0.50;0.50;;;19.70;97.90;;;;;;5037223;28;20044;-84
2023/04/28 10:33:49;;;;;;;3.05;0.60;;;19.70;99.20;;;;;;5035513;28;20544;-83
2023/04/28 10:36:47;;;;;;;0.50;0.50;;;19.60;98.90;;;;;;5024594;28;20161;-81
2023/04/28 10:39:13;;;;;;;0.65;0.40;;;19.40;97.10;;;;;;5023367;28;20566;-81
2023/04/28 10:41:38;;;;;;;0.60;0.60;;;19.40;98.80;;;;;;5054774;28;20021;-81
2023/04/28 10:44:33;;;;;;;0.80;0.50;;;19.30;98.60;;;;;;5046617;28;20480;-82
2023/04/28 10:47:03;;;;;;;0.50;0.50;;;19.20;97.30;;;;;;5044521;28;20032;-85
2023/04/28 10:49:53;;;;;;;0.60;0.60;;;19.20;99.20;;;;;;5031057;28;20560;-83
2023/04/28 10:52:43;;;;;;;0.40;0.40;;;19.10;98.50;;;;;;5040000;28;20351;-82
2023/04/28 10:55:35;;;;;;;0.60;0.50;;;19.20;98.30;;;;;;5040997;28;20090;-81
2023/04/28 10:58:18;;;;;;;0.50;0.50;;;19.20;98.60;;;;;;5044068;28;20067;-82
2023/04/28 11:00:49;;;;;;;0.77;0.70;;;19.20;98.60;;;;;;5054205;28;20044;-82
2023/04/28 11:03:43;;;;;;;0.65;0.65;;;19.30;99.60;;;;;;5033871;28;20164;-82
2023/04/28 11:06:25;;;;;;;0.60;0.60;;;19.30;98.00;;;;;;5001419;28;20025;-81
2023/04/28 11:09:02;;;;;;;0.53;0.53;;;19.30;98.40;;;;;;5032538;28;20044;-84
2023/04/28 11:11:35;;;;;;;0.60;0.60;;;19.30;98.00;;;;;;5035479;28;20039;-82
2023/04/28 11:14:20;;;;;;;0.60;0.60;;;19.30;98.80;;;;;;5047158;28;20029;-83
2023/04/28 11:17:04;;;;;;;0.93;0.70;;;19.40;98.20;;;;;;5051602;28;20515;-81
2023/04/28 11:19:36;;;;;;;0.70;0.60;;;19.40;98.00;;;;;;5030351;28;20012;-84
2023/04/28 11:22:08;;;;;;;0.63;0.63;;;19.40;98.60;;;;;;5041745;28;20552;-84
2023/04/28 11:24:34;;;;;;;0.70;0.70;;;19.40;99.00;;;;;;5047271;28;20511;-80
2023/04/28 11:27:01;;;;;;;0.80;0.75;;;19.40;99.20;;;;;;5039551;28;20115;-83
2023/04/28 11:29:34;;;;;;;0.90;0.90;;;19.50;99.20;;;;;;5045902;28;20614;-81
2023/04/28 11:32:00;;;;;;;1.50;1.00;;;19.50;98.60;;;;;;5055048;28;20708;-81
2023/04/28 11:34:26;;;;;;;0.80;0.73;;;19.40;98.60;;;;;;5052833;28;20106;-82
2023/04/28 11:36:52;;;;;;;1.30;1.00;;;19.40;98.40;;;;;;5031997;28;20028;-79
2023/04/28 11:39:27;;;;;;;1.00;0.90;;;19.30;98.20;;;;;;5040921;28;20653;-82
2023/04/28 11:41:53;;;;;;;1.25;0.93;;;19.20;97.70;;;;;;5032908;28;20036;-84
2023/04/28 11:44:20;;;;;;;1.17;1.00;;;19.10;98.50;;;;;;5028387;28;20059;-81
2023/04/28 11:46:59;;;;;;;1.08;0.98;;;19.00;98.00;;;;;;5051464;28;20028;-84
2023/04/28 11:49:27;;;;;;;1.00;0.90;;;19.00;98.10;;;;;;5053788;28;20043;-81
2023/04/28 11:51:54;;;;;;;1.83;0.90;;;18.90;98.20;;;;;;5033199;28;20028;-82
2023/04/28 11:54:21;;;;;;;1.10;1.00;;;18.80;98.30;;;;;;5024803;28;20175;-83
2023/04/28 11:56:46;;;;;;;1.42;1.00;;;18.80;98.50;;;;;;5046567;28;20063;-82
2023/04/28 11:59:13;;;;;;;1.20;0.80;;;18.80;98.60;;;;;;5020580;28;20032;-81
2023/04/28 12:01:57;;;;;;;1.10;1.00;;;18.80;98.60;;;;;;5055252;28;20350;-81
2023/04/28 12:04:34;;;;;;;1.10;1.00;;;18.80;97.60;;;;;;5034706;28;20044;-81
2023/04/28 12:07:11;;;;;;;0.90;0.90;;;18.80;97.20;;;;;;5028364;28;20033;-80
2023/04/28 12:09:56;;;;;;;1.33;1.00;;;18.70;97.80;;;;;;5043094;28;20702;-80
2023/04/28 12:12:29;;;;;;;1.20;0.80;;;18.70;97.80;;;;;;5053025;28;20032;-80
2023/04/28 12:15:05;;;;;;;1.85;0.77;;;18.60;97.50;;;;;;5016121;28;20020;-81
2023/04/28 12:17:40;;;;;;;1.17;0.90;;;18.60;98.00;;;;;;5051552;28;20095;-81
2023/04/28 12:20:08;;;;;;;1.10;1.00;;;18.50;98.20;;;;;;5052609;28;20386;-81
2023/04/28 12:22:42;;;;;;;1.75;1.23;;;18.60;98.30;;;;;;5045032;28;20244;-81
2023/04/28 12:25:10;;;;;;;2.03;1.05;;;18.60;97.50;;;;;;5026510;28;20906;-81
2023/04/28 12:27:39;;;;;;;1.45;1.10;;;18.50;97.90;;;;;;5033607;28;20502;-83
2023/04/28 12:30:21;;;;;;;1.40;1.10;;;18.50;97.90;;;;;;5038461;28;20037;-80
2023/04/28 12:32:47;;;;;;;1.30;1.15;;;18.40;97.10;;;;;;5032364;28;20947;-82
2023/04/28 12:35:13;;;;;;;1.52;1.10;;;18.40;98.10;;;;;;5054435;28;20176;-81
2023/04/28 12:37:40;;;;;;;2.47;1.20;;;18.40;98.20;;;;;;5023626;28;20111;-82
2023/04/28 12:40:07;;;;;;;1.40;1.20;;;18.40;98.10;;;;;;5042560;28;20119;-82
2023/04/28 12:42:34;;;;;;;1.52;1.20;;;18.40;98.30;;;;;;5053879;28;20401;-82
2023/04/28 12:44:59;;;;;;;1.15;1.05;;;18.40;98.20;;;;;;5043204;28;20067;-83
2023/04/28 12:47:25;;;;;;;1.10;1.00;;;18.40;98.30;;;;;;5032209;28;20115;-82
2023/04/28 12:49:52;;;;;;;1.13;1.00;;;18.40;98.10;;;;;;5056063;28;20112;-82
2023/04/28 12:52:19;;;;;;;1.38;1.13;;;18.40;98.20;;;;;;5055306;28;20025;-82